createdAt,value
2022-08-09T14:46:51.327Z,33.62
2022-08-09T14:46:57.173Z,32.73
2022-08-09T14:47:44.972Z,34.01
2022-08-09T14:48:33.409Z,32.54
2022-08-09T14:49:34.657Z,34.99
2022-08-09T14:50:32.342Z,32.03
2022-08-09T14:51:31.886Z,32.72
2022-08-09T14:52:33.095Z,31.95
2022-08-09T14:53:31.858Z,31.85
2022-08-09T14:54:34.109Z,31.75
2022-08-09T14:55:32.753Z,30.45
2022-08-09T14:57:43.492Z,31.95
2022-08-09T14:58:44.083Z,31.93
2022-08-09T14:59:46.700Z,32.03
2022-08-09T15:00:48.123Z,32.21
2022-08-09T15:01:43.381Z,34.20
2022-08-09T15:02:42.281Z,31.51
2022-08-09T15:03:42.364Z,31.32
2022-08-09T15:04:42.259Z,31.13
2022-08-09T15:05:50.251Z,30.63
2022-08-09T15:06:43.257Z,33.59
2022-08-09T15:07:43.759Z,32.39
2022-08-09T15:08:42.235Z,32.08
2022-08-09T15:10:07.802Z,31.70
2022-08-09T15:10:43.237Z,32.97
2022-08-09T15:11:48.267Z,32.07
2022-08-09T15:12:45.040Z,32.38
2022-08-09T15:13:56.480Z,32.67
2022-08-09T15:14:43.249Z,33.25
2022-08-09T15:15:43.843Z,30.59
2022-08-09T15:16:42.203Z,31.57
2022-08-09T15:17:46.160Z,33.15
2022-08-09T15:18:43.357Z,32.24
2022-08-09T15:19:59.589Z,32.54
2022-08-09T15:21:55.400Z,32.45
2022-08-09T15:21:56.202Z,31.46
2022-08-09T15:22:47.154Z,33.03
2022-08-09T15:24:03.094Z,33.62
2022-08-09T15:24:44.293Z,32.92
2022-08-09T15:25:43.249Z,32.23
2022-08-09T15:26:45.969Z,30.97
2022-08-09T15:27:47.871Z,31.16
2022-08-09T15:28:44.249Z,30.68
2022-08-09T15:30:58.652Z,31.67
2022-08-09T15:30:59.435Z,31.98
2022-08-09T15:31:44.245Z,31.87
2022-08-09T15:32:43.519Z,31.00
2022-08-09T15:34:17.349Z,33.56
2022-08-09T15:34:44.213Z,31.69
2022-08-09T15:35:44.735Z,32.48
2022-08-09T15:36:48.200Z,32.95
2022-08-09T15:37:57.073Z,33.05
2022-08-09T15:38:44.189Z,34.22
2022-08-09T15:39:53.495Z,32.05
2022-08-09T15:40:44.408Z,32.26
2022-08-09T15:41:47.091Z,33.62
2022-08-09T15:42:44.195Z,31.79
2022-08-09T15:43:43.157Z,33.64
2022-08-09T15:44:43.170Z,31.20
2022-08-09T15:45:51.915Z,32.51
2022-08-09T15:46:43.180Z,32.20
2022-08-09T15:47:52.857Z,33.28
2022-08-09T15:48:43.136Z,34.94
2022-08-09T15:50:00.713Z,32.59
2022-08-09T15:50:44.137Z,31.79
2022-08-09T15:52:02.058Z,31.70
2022-08-09T15:52:45.008Z,32.21
2022-08-09T15:54:05.154Z,33.28
2022-08-09T15:54:49.382Z,31.90
2022-08-09T15:56:04.093Z,33.38
2022-08-09T15:56:43.118Z,31.82
2022-08-09T15:57:44.304Z,32.21
2022-08-09T15:58:44.086Z,33.01
2022-08-09T15:59:48.396Z,33.23
2022-08-09T16:00:44.142Z,33.41
2022-08-09T16:01:43.083Z,34.10
2022-08-09T16:02:43.375Z,33.70
2022-08-09T16:03:44.061Z,34.79
2022-08-09T16:04:43.059Z,33.20
2022-08-09T16:05:53.445Z,31.83
2022-08-09T16:06:44.525Z,32.42
2022-08-09T16:07:46.103Z,32.62
2022-08-09T16:08:44.583Z,31.57
2022-08-09T16:10:02.165Z,32.85
2022-08-09T16:10:56.453Z,33.25
2022-08-09T16:11:48.522Z,35.22
2022-08-09T16:12:50.612Z,31.65
2022-08-09T16:14:03.760Z,33.64
2022-08-09T16:14:44.013Z,32.56
2022-08-09T16:16:11.626Z,33.04
2022-08-09T16:16:48.154Z,32.35
2022-08-09T16:17:46.705Z,32.65
2022-08-09T16:18:45.167Z,33.15
2022-08-09T16:19:49.709Z,33.04
2022-08-09T16:20:44.030Z,34.01
2022-08-09T16:21:42.983Z,33.82
2022-08-09T16:22:48.570Z,32.64
2022-08-09T16:23:48.047Z,32.84
2022-08-09T16:24:44.053Z,33.23
2022-08-09T16:25:43.952Z,32.93
2022-08-09T16:26:42.942Z,34.39
2022-08-09T16:27:43.931Z,35.18
2022-08-09T16:28:43.929Z,34.22
2022-08-09T16:29:50.681Z,34.01
2022-08-09T16:30:44.559Z,33.34
2022-08-09T16:32:19.329Z,33.75
2022-08-09T16:32:49.433Z,33.74
2022-08-09T16:33:43.933Z,34.03
2022-08-09T16:34:55.775Z,34.13
2022-08-09T16:35:55.905Z,33.95
2022-08-09T16:36:42.891Z,33.44
2022-08-09T16:37:55.541Z,33.56
2022-08-09T16:38:43.896Z,33.65
2022-08-09T16:39:54.803Z,33.56
2022-08-09T16:40:43.925Z,33.65
2022-08-09T16:42:03.473Z,33.77
2022-08-09T16:42:44.910Z,35.55
2022-08-09T16:43:42.850Z,33.67
2022-08-09T16:44:42.846Z,33.87
2022-08-09T16:45:44.242Z,33.59
2022-08-09T16:46:55.174Z,33.58
2022-08-09T16:48:40.587Z,34.56
2022-08-09T16:48:51.003Z,34.36
2022-08-09T16:50:29.272Z,34.06
2022-08-09T16:50:59.109Z,33.97
2022-08-09T16:51:42.829Z,33.98
2022-08-09T16:52:43.125Z,33.69
2022-08-09T16:54:02.260Z,34.28
2022-08-09T16:54:42.795Z,33.39
2022-08-09T16:56:00.134Z,33.59
2022-08-09T16:56:49.168Z,34.00
2022-08-09T16:58:09.295Z,34.79
2022-08-09T16:58:50.558Z,35.47
2022-08-09T16:59:43.957Z,34.30
2022-08-09T17:00:43.833Z,34.59
2022-08-09T17:01:45.584Z,34.99
2022-08-09T17:02:46.390Z,34.28
2022-08-09T17:03:42.739Z,34.10
2022-08-09T17:04:42.743Z,34.20
2022-08-09T17:06:02.842Z,34.67
2022-08-09T17:08:40.585Z,34.58
2022-08-09T17:08:42.899Z,34.67
2022-08-09T17:09:01.616Z,35.37
2022-08-09T17:09:47.047Z,36.75
2022-08-09T17:10:42.712Z,35.07
2022-08-09T17:11:42.753Z,35.17
2022-08-09T17:12:42.771Z,35.66
2022-08-09T17:13:45.242Z,37.24
2022-08-09T17:14:47.922Z,36.75
2022-08-09T17:16:00.405Z,35.09
2022-08-09T17:16:43.678Z,35.19
2022-08-09T17:17:50.432Z,34.99
2022-08-09T17:18:45.271Z,34.50
2022-08-09T17:20:04.947Z,35.37
2022-08-09T17:20:50.936Z,36.27
2022-08-09T17:21:46.615Z,34.69
2022-08-09T17:22:50.269Z,36.57
2022-08-09T17:24:20.442Z,36.39
2022-08-09T17:24:47.728Z,36.97
2022-08-09T17:25:43.640Z,37.26
2022-08-09T17:26:42.624Z,37.64
2022-08-09T17:27:49.490Z,36.55
2022-08-09T17:28:43.615Z,35.09
2022-08-09T17:29:45.558Z,36.16
2022-08-09T17:30:47.784Z,36.95
2022-08-09T17:31:45.759Z,36.37
2022-08-09T17:32:44.353Z,35.28
2022-08-09T17:33:42.592Z,35.68
2022-08-09T17:35:04.297Z,35.78
2022-08-09T17:35:43.907Z,36.27
2022-08-09T17:36:53.154Z,36.47
2022-08-09T17:38:14.243Z,36.18
2022-08-09T17:38:43.563Z,35.58
2022-08-09T17:39:52.822Z,35.21
2022-08-09T17:40:42.607Z,35.40
2022-08-09T17:41:42.559Z,35.70
2022-08-09T17:42:42.694Z,36.49
2022-08-09T17:43:45.796Z,35.50
2022-08-09T17:44:48.969Z,35.82
2022-08-09T17:46:03.863Z,36.01
2022-08-09T17:46:55.712Z,36.51
2022-08-09T17:47:48.388Z,35.83
2022-08-09T17:48:52.169Z,36.23
2022-08-09T17:49:54.236Z,36.21
2022-08-09T17:50:55.869Z,37.20
2022-08-09T17:51:42.694Z,37.12
2022-08-09T17:52:42.479Z,36.23
2022-08-09T17:53:48.192Z,36.23
2022-08-09T17:54:42.467Z,37.71
2022-08-09T17:55:49.335Z,36.33
2022-08-09T17:56:43.476Z,36.92
2022-08-09T17:58:02.555Z,36.64
2022-08-09T17:58:42.927Z,36.74
2022-08-09T17:59:42.453Z,37.13
2022-08-09T18:00:46.620Z,36.94
2022-08-09T18:02:03.364Z,37.34
2022-08-09T18:02:43.527Z,37.24
2022-08-09T18:03:43.456Z,37.75
2022-08-09T18:04:42.424Z,37.75
2022-08-09T18:05:43.902Z,37.55
2022-08-09T18:06:43.120Z,37.65
2022-08-09T18:07:48.544Z,38.34
2022-08-09T18:08:44.395Z,38.24
2022-08-09T18:09:42.390Z,37.75
2022-08-09T18:10:42.527Z,38.64
2022-08-09T18:12:05.925Z,38.17
2022-08-09T18:13:39.270Z,38.46
2022-08-09T18:14:00.483Z,39.06
2022-08-09T18:14:49.501Z,39.85
2022-08-09T18:16:05.433Z,40.44
2022-08-09T18:16:48.690Z,40.66
2022-08-09T18:18:03.287Z,40.36
2022-08-09T18:18:49.346Z,41.85
2022-08-09T18:20:54.197Z,41.95
2022-08-09T18:20:54.368Z,41.66
2022-08-09T18:21:43.308Z,42.55
2022-08-09T18:22:44.118Z,42.74
2022-08-09T18:24:11.014Z,43.66
2022-08-09T18:24:43.348Z,43.58
2022-08-09T18:25:53.292Z,44.77
2022-08-09T18:26:46.011Z,45.17
2022-08-09T18:28:04.105Z,44.97
2022-08-09T18:30:41.928Z,45.79
2022-08-09T18:30:42.606Z,45.07
2022-08-09T18:30:49.683Z,45.29
2022-08-09T18:31:55.313Z,46.80
2022-08-09T18:32:43.253Z,47.10
2022-08-09T18:33:52.976Z,48.69
2022-08-09T18:34:43.263Z,48.32
2022-08-09T18:35:58.663Z,48.89
2022-08-09T18:36:42.234Z,48.91
2022-08-09T18:37:47.500Z,49.91
2022-08-09T18:38:42.217Z,49.63
2022-08-09T18:39:42.271Z,49.23
2022-08-09T18:40:42.257Z,49.63
2022-08-09T18:41:52.887Z,50.45
2022-08-09T18:42:43.935Z,50.85
2022-08-09T18:43:52.862Z,51.25
2022-08-09T18:44:43.202Z,50.60
2022-08-09T18:46:48.487Z,51.70
2022-08-09T18:46:49.085Z,51.40
2022-08-09T18:47:43.179Z,51.50
2022-08-09T18:48:43.163Z,52.32
2022-08-09T18:49:46.255Z,52.42
2022-08-09T18:50:42.171Z,52.74
2022-08-09T18:51:55.413Z,52.64
2022-08-09T18:52:43.253Z,52.25
2022-08-09T18:53:59.597Z,52.34
2022-08-09T18:54:49.673Z,52.74
2022-08-09T18:55:56.500Z,52.57
2022-08-09T18:56:43.160Z,52.87
2022-08-09T18:57:44.549Z,52.67
2022-08-09T18:58:42.120Z,53.06
2022-08-09T18:59:49.047Z,52.97
2022-08-09T19:00:42.112Z,53.79
2022-08-09T19:01:46.022Z,54.19
2022-08-09T19:02:42.231Z,54.49
2022-08-09T19:03:54.570Z,54.59
2022-08-09T19:04:47.582Z,55.41
2022-08-09T19:06:02.440Z,54.41
2022-08-09T19:06:43.519Z,55.51
2022-08-09T19:07:43.239Z,55.51
2022-08-09T19:08:43.055Z,55.41
2022-08-09T19:10:14.121Z,56.24
2022-08-09T19:10:42.052Z,56.54
2022-08-09T19:11:42.048Z,56.54
2022-08-09T19:12:42.045Z,55.94
2022-08-09T19:13:51.333Z,56.04
2022-08-09T19:14:43.560Z,56.67
2022-08-09T19:15:42.041Z,56.96
2022-08-09T19:16:50.400Z,57.34
2022-08-09T19:17:54.895Z,57.57
2022-08-09T19:18:45.491Z,57.57
2022-08-09T19:19:42.247Z,57.50
2022-08-09T19:20:42.002Z,58.00
2022-08-09T19:21:47.675Z,56.89
2022-08-09T19:22:54.226Z,57.69
2022-08-09T19:24:35.660Z,58.89
2022-08-09T19:25:09.651Z,57.72
2022-08-09T19:26:02.225Z,58.62
2022-08-09T19:26:42.950Z,59.42
2022-08-09T19:27:41.948Z,58.55
2022-08-09T19:28:42.675Z,58.32
2022-08-09T19:30:22.145Z,59.25
2022-08-09T19:30:44.328Z,59.25
2022-08-09T19:31:45.228Z,59.38
2022-08-09T19:32:41.957Z,60.35
2022-08-09T19:33:41.936Z,60.45
2022-08-09T19:34:45.548Z,60.28
2022-08-09T19:35:57.199Z,60.78
2022-08-09T19:36:43.733Z,60.38
2022-08-09T19:37:56.001Z,60.68
2022-08-09T19:38:42.987Z,61.18
2022-08-09T19:40:02.701Z,62.21
2022-08-09T19:40:42.933Z,61.61
2022-08-09T19:41:42.256Z,61.61
2022-08-09T19:42:41.868Z,62.54
2022-08-09T19:44:00.909Z,62.74
2022-08-09T19:44:42.840Z,62.54
2022-08-09T19:45:42.229Z,62.57
2022-08-09T19:46:50.900Z,63.47
2022-08-09T19:47:43.574Z,62.87
2022-08-09T19:49:01.608Z,64.28
2022-08-09T19:50:10.288Z,63.57
2022-08-09T19:50:51.551Z,63.67
2022-08-09T19:51:43.559Z,64.07
2022-08-09T19:52:49.376Z,64.28
2022-08-09T19:53:45.587Z,63.81
2022-08-09T19:54:41.811Z,64.54
2022-08-09T19:56:03.226Z,64.34
2022-08-09T19:56:44.582Z,64.84
2022-08-09T19:57:42.858Z,65.04
2022-08-09T19:58:41.784Z,65.14
2022-08-09T20:00:05.928Z,65.97
2022-08-09T20:00:42.762Z,66.08
2022-08-09T20:01:52.183Z,65.88
2022-08-09T20:04:17.916Z,65.67
2022-08-09T20:04:18.548Z,64.67
2022-08-09T20:04:52.999Z,64.77
2022-08-09T20:05:46.289Z,65.57
2022-08-09T20:06:42.204Z,65.37
2022-08-09T20:07:58.838Z,66.58
2022-08-09T20:08:42.859Z,66.20
2022-08-09T20:09:44.335Z,64.90
2022-08-09T20:10:41.727Z,65.41
2022-08-09T20:11:45.227Z,66.20
2022-08-09T20:12:45.954Z,64.80
2022-08-09T20:13:41.752Z,65.00
2022-08-09T20:14:43.691Z,66.03
2022-08-09T20:16:34.296Z,66.34
2022-08-09T20:16:50.134Z,67.24
2022-08-09T20:17:48.626Z,66.14
2022-08-09T20:19:04.020Z,66.74
2022-08-09T20:19:53.711Z,66.94
2022-08-09T20:20:41.686Z,66.77
2022-08-09T20:21:56.645Z,66.47
2022-08-09T20:22:42.881Z,67.18
2022-08-09T20:23:41.707Z,67.07
2022-08-09T20:24:41.652Z,67.07
2022-08-09T20:25:51.889Z,68.11
2022-08-09T20:26:41.618Z,68.62
2022-08-09T20:27:41.771Z,68.21
2022-08-09T20:28:48.541Z,67.81
2022-08-09T20:29:42.616Z,68.41
2022-08-09T20:30:41.610Z,66.40
2022-08-09T20:32:17.110Z,66.91
2022-08-09T20:32:41.899Z,67.61
2022-08-09T20:33:44.099Z,67.41
2022-08-09T20:34:41.585Z,68.01
2022-08-09T20:35:41.607Z,68.95
2022-08-09T20:36:41.589Z,68.71
2022-08-09T20:38:23.939Z,68.65
2022-08-09T20:39:29.050Z,68.15
2022-08-09T20:40:14.938Z,68.35
2022-08-09T20:40:42.612Z,68.95
2022-08-09T20:41:41.623Z,68.24
2022-08-09T20:42:41.519Z,68.85
2022-08-09T20:43:44.856Z,68.85
2022-08-09T20:44:41.520Z,68.95
2022-08-09T20:46:00.452Z,68.58
2022-08-09T20:46:42.971Z,68.68
2022-08-09T20:47:48.127Z,68.85
2022-08-09T20:48:42.041Z,69.49
2022-08-09T20:49:41.536Z,69.79
2022-08-09T20:50:47.066Z,69.49
2022-08-09T20:51:42.554Z,69.79
2022-08-09T20:52:41.463Z,69.29
2022-08-09T20:53:41.480Z,69.79
2022-08-09T20:54:52.761Z,69.32
2022-08-09T20:55:47.182Z,69.42
2022-08-09T20:56:41.468Z,69.79
2022-08-09T20:58:05.216Z,69.59
2022-08-09T20:59:09.976Z,70.32
2022-08-09T21:00:19.266Z,70.62
2022-08-09T21:00:45.220Z,70.42
2022-08-09T21:01:50.903Z,70.32
2022-08-09T21:02:42.556Z,70.42
2022-08-09T21:05:49.101Z,70.66
2022-08-09T21:05:50.886Z,70.26
2022-08-09T21:05:55.221Z,70.46
2022-08-09T21:06:42.702Z,70.76
2022-08-09T21:07:44.445Z,70.26
2022-08-09T21:08:41.499Z,70.56
2022-08-09T21:09:45.988Z,70.46
2022-08-09T21:10:42.996Z,70.66
2022-08-09T21:12:46.028Z,70.56
2022-08-09T21:13:59.100Z,70.97
2022-08-09T21:14:42.346Z,70.46
2022-08-09T21:15:54.329Z,70.97
2022-08-09T21:16:42.310Z,71.57
2022-08-09T21:18:23.977Z,71.06
2022-08-09T21:20:04.192Z,71.97
2022-08-09T21:20:17.206Z,71.70
2022-08-09T21:20:42.334Z,71.80
2022-08-09T21:21:46.207Z,71.91
2022-08-09T21:22:41.282Z,72.00
2022-08-09T21:23:50.995Z,72.20
2022-08-09T21:24:42.310Z,71.91
2022-08-09T21:25:44.430Z,72.00
2022-08-09T21:26:42.265Z,72.75
2022-08-09T21:27:52.168Z,72.85
2022-08-09T21:28:55.933Z,72.64
2022-08-09T21:29:49.603Z,72.54
2022-08-09T21:30:41.289Z,72.44
2022-08-09T21:31:48.748Z,72.85
2022-08-09T21:32:42.243Z,73.25
2022-08-09T21:33:41.258Z,73.75
2022-08-09T21:34:48.428Z,73.15
2022-08-09T21:35:51.154Z,72.95
2022-08-09T21:36:55.377Z,73.15
2022-08-09T21:37:58.619Z,73.79
2022-08-09T21:38:42.221Z,73.89
2022-08-09T21:39:42.254Z,74.49
2022-08-09T21:40:41.201Z,74.29
2022-08-09T21:42:05.478Z,73.28
2022-08-09T21:42:42.172Z,74.13
2022-08-09T21:43:57.868Z,74.63
2022-08-09T21:44:42.902Z,74.63
2022-08-09T21:45:41.196Z,74.53
2022-08-09T21:46:41.192Z,74.93
2022-08-09T21:47:41.181Z,73.62
2022-08-09T21:48:42.743Z,75.04
2022-08-09T21:49:42.773Z,74.93
2022-08-09T21:50:43.459Z,75.13
2022-08-09T21:51:43.904Z,74.22
2022-08-09T21:52:41.152Z,74.63
2022-08-09T21:53:41.573Z,74.84
2022-08-09T21:54:41.144Z,75.48
2022-08-09T21:55:46.569Z,74.87
2022-08-09T21:56:44.565Z,74.87
2022-08-09T21:57:58.786Z,75.27
2022-08-09T21:58:42.526Z,75.68
2022-08-09T21:59:42.833Z,75.17
2022-08-09T22:00:41.107Z,75.27
2022-08-09T22:01:59.012Z,75.17
2022-08-09T22:02:42.941Z,75.57
2022-08-09T22:03:57.097Z,75.98
2022-08-09T22:04:57.129Z,75.57
2022-08-09T22:05:42.622Z,75.48
2022-08-09T22:06:41.061Z,75.01
2022-08-09T22:07:41.746Z,76.28
2022-08-09T22:08:41.095Z,76.52
2022-08-09T22:09:43.645Z,75.92
2022-08-09T22:11:49.056Z,76.22
2022-08-09T22:12:05.790Z,76.42
2022-08-09T22:12:49.780Z,76.32
2022-08-09T22:13:43.367Z,76.82
2022-08-09T22:14:41.008Z,76.22
2022-08-09T22:15:41.013Z,76.42
2022-08-09T22:16:41.004Z,76.72
2022-08-09T22:17:45.953Z,76.82
2022-08-09T22:18:53.594Z,76.22
2022-08-09T22:19:59.821Z,76.32
2022-08-09T22:20:41.974Z,76.42
2022-08-09T22:21:45.065Z,76.62
2022-08-09T22:22:41.972Z,77.26
2022-08-09T22:23:59.251Z,77.47
2022-08-09T22:24:53.603Z,77.37
2022-08-09T22:26:06.786Z,76.86
2022-08-09T22:26:41.975Z,77.67
2022-08-09T22:27:42.240Z,77.57
2022-08-09T22:28:43.658Z,76.86
2022-08-09T22:29:46.523Z,77.17
2022-08-09T22:30:48.691Z,77.17
2022-08-09T22:31:50.474Z,76.97
2022-08-09T22:32:41.928Z,77.00
2022-08-09T22:33:55.212Z,77.37
2022-08-09T22:34:40.901Z,77.26
2022-08-09T22:36:01.574Z,76.97
2022-08-09T22:36:46.312Z,76.76
2022-08-09T22:37:42.097Z,77.37
2022-08-09T22:38:40.899Z,77.47
2022-08-09T22:39:58.246Z,77.26
2022-08-09T22:40:49.284Z,77.17
2022-08-09T22:41:41.953Z,77.47
2022-08-09T22:42:40.894Z,76.79
2022-08-09T22:44:02.190Z,77.91
2022-08-09T22:44:45.606Z,77.81
2022-08-09T22:48:14.396Z,77.91
2022-08-09T22:48:14.554Z,77.40
2022-08-09T22:48:18.555Z,77.50
2022-08-09T22:48:50.573Z,77.30
2022-08-09T22:49:41.832Z,77.81
2022-08-09T22:50:40.808Z,78.42
2022-08-09T22:51:49.663Z,78.31
2022-08-09T22:52:41.823Z,78.52
2022-08-09T22:53:58.225Z,78.82
2022-08-09T22:54:41.801Z,77.84
2022-08-09T22:56:30.313Z,78.35
2022-08-09T22:56:41.981Z,78.66
2022-08-09T22:57:44.449Z,78.82
2022-08-09T22:58:40.774Z,78.86
2022-08-09T22:59:56.305Z,78.86
2022-08-09T23:00:40.761Z,79.67
2022-08-09T23:01:40.804Z,79.57
2022-08-09T23:02:40.799Z,80.11
2022-08-09T23:04:03.294Z,80.21
2022-08-09T23:04:41.712Z,80.21
2022-08-09T23:05:40.717Z,80.31
2022-08-09T23:06:41.702Z,80.35
2022-08-09T23:08:27.483Z,80.52
2022-08-09T23:08:41.700Z,80.35
2022-08-09T23:09:40.705Z,80.35
2022-08-09T23:10:43.796Z,80.96
2022-08-09T23:11:41.681Z,81.10
2022-08-09T23:12:40.684Z,80.86
2022-08-09T23:13:40.717Z,80.65
2022-08-09T23:14:41.677Z,80.15
2022-08-09T23:15:40.748Z,79.94
2022-08-09T23:16:40.654Z,79.85
2022-08-09T23:17:40.644Z,80.25
2022-08-09T23:18:40.670Z,79.71
2022-08-09T23:20:01.038Z,79.80
2022-08-09T23:20:41.634Z,79.85
2022-08-09T23:21:40.620Z,80.65
2022-08-09T23:22:40.622Z,80.35
2022-08-09T23:23:40.628Z,79.94
2022-08-09T23:24:40.699Z,80.15
2022-08-09T23:25:40.584Z,80.25
2022-08-09T23:26:40.593Z,80.15
2022-08-09T23:28:14.001Z,80.35
2022-08-09T23:28:41.585Z,80.05
2022-08-09T23:29:40.601Z,80.76
2022-08-09T23:30:40.595Z,80.86
2022-08-09T23:31:40.578Z,81.50
2022-08-09T23:32:40.580Z,81.50
2022-08-09T23:33:40.563Z,81.60
2022-08-09T23:34:40.555Z,81.30
2022-08-09T23:36:05.980Z,81.10
2022-08-09T23:36:40.537Z,82.42
2022-08-09T23:37:40.526Z,82.11
2022-08-09T23:38:49.059Z,82.21
2022-08-09T23:39:42.187Z,81.81
2022-08-09T23:40:40.641Z,81.74
2022-08-09T23:41:40.514Z,82.01
2022-08-09T23:42:40.782Z,82.31
2022-08-09T23:43:40.503Z,82.01
2022-08-09T23:44:40.494Z,82.45
2022-08-09T23:45:40.499Z,81.91
2022-08-09T23:46:40.524Z,82.31
2022-08-09T23:47:40.480Z,82.56
2022-08-09T23:48:40.467Z,82.25
2022-08-09T23:49:40.461Z,82.45
2022-08-09T23:50:40.444Z,82.66
2022-08-09T23:51:40.475Z,82.66
2022-08-09T23:52:40.423Z,82.25
2022-08-09T23:53:40.472Z,82.80
2022-08-09T23:54:40.431Z,82.96
2022-08-09T23:55:40.409Z,82.50
2022-08-09T23:56:54.149Z,83.00
2022-08-09T23:57:44.982Z,82.45
2022-08-09T23:58:41.416Z,83.40
2022-08-09T23:59:40.453Z,83.10
